sensor_id;sensor_type;location;lat;lon;timestamp;P1;durP1;ratioP1;P2;durP2;ratioP2
55489;SDS011;44029;52.956;4.772;2023-06-19T00:01:58;9.48;;;5.57;;
55489;SDS011;44029;52.956;4.772;2023-06-19T00:04:24;9.52;;;4.53;;
55489;SDS011;44029;52.956;4.772;2023-06-19T00:06:50;11.27;;;5.60;;
55489;SDS011;44029;52.956;4.772;2023-06-19T00:09:16;8.55;;;6.03;;
55489;SDS011;44029;52.956;4.772;2023-06-19T00:11:42;8.35;;;5.63;;
55489;SDS011;44029;52.956;4.772;2023-06-19T00:14:07;7.50;;;4.80;;
55489;SDS011;44029;52.956;4.772;2023-06-19T00:16:33;10.60;;;6.35;;
55489;SDS011;44029;52.956;4.772;2023-06-19T00:18:58;9.15;;;5.60;;
55489;SDS011;44029;52.956;4.772;2023-06-19T00:21:23;10.48;;;5.45;;
55489;SDS011;44029;52.956;4.772;2023-06-19T00:23:50;10.50;;;6.20;;
55489;SDS011;44029;52.956;4.772;2023-06-19T00:26:16;7.30;;;5.68;;
55489;SDS011;44029;52.956;4.772;2023-06-19T00:28:42;7.50;;;5.28;;
55489;SDS011;44029;52.956;4.772;2023-06-19T00:31:10;9.15;;;6.38;;
55489;SDS011;44029;52.956;4.772;2023-06-19T00:33:38;8.80;;;6.00;;
55489;SDS011;44029;52.956;4.772;2023-06-19T00:36:08;7.38;;;6.03;;
55489;SDS011;44029;52.956;4.772;2023-06-19T00:38:35;8.90;;;6.25;;
55489;SDS011;44029;52.956;4.772;2023-06-19T00:41:00;9.02;;;6.50;;
55489;SDS011;44029;52.956;4.772;2023-06-19T00:43:26;8.35;;;5.78;;
55489;SDS011;44029;52.956;4.772;2023-06-19T00:45:51;10.30;;;6.75;;
55489;SDS011;44029;52.956;4.772;2023-06-19T00:48:16;11.57;;;6.63;;
55489;SDS011;44029;52.956;4.772;2023-06-19T00:50:42;6.97;;;5.32;;
55489;SDS011;44029;52.956;4.772;2023-06-19T00:53:07;10.52;;;6.68;;
55489;SDS011;44029;52.956;4.772;2023-06-19T00:55:33;7.68;;;5.03;;
55489;SDS011;44029;52.956;4.772;2023-06-19T00:57:59;8.75;;;6.60;;
55489;SDS011;44029;52.956;4.772;2023-06-19T01:00:25;11.60;;;6.72;;
55489;SDS011;44029;52.956;4.772;2023-06-19T01:02:51;9.23;;;6.40;;
55489;SDS011;44029;52.956;4.772;2023-06-19T01:05:16;9.55;;;6.43;;
55489;SDS011;44029;52.956;4.772;2023-06-19T01:10:27;10.15;;;5.65;;
55489;SDS011;44029;52.956;4.772;2023-06-19T01:15:23;11.65;;;6.32;;
55489;SDS011;44029;52.956;4.772;2023-06-19T01:17:50;7.32;;;5.70;;
55489;SDS011;44029;52.956;4.772;2023-06-19T01:20:15;10.38;;;7.43;;
55489;SDS011;44029;52.956;4.772;2023-06-19T01:22:41;7.70;;;6.05;;
55489;SDS011;44029;52.956;4.772;2023-06-19T01:25:09;10.85;;;6.65;;
55489;SDS011;44029;52.956;4.772;2023-06-19T01:27:35;9.90;;;6.82;;
55489;SDS011;44029;52.956;4.772;2023-06-19T01:30:01;10.10;;;6.78;;
55489;SDS011;44029;52.956;4.772;2023-06-19T01:32:33;9.63;;;6.78;;
55489;SDS011;44029;52.956;4.772;2023-06-19T01:34:59;11.73;;;6.65;;
55489;SDS011;44029;52.956;4.772;2023-06-19T01:37:27;13.77;;;6.95;;
55489;SDS011;44029;52.956;4.772;2023-06-19T01:39:56;10.85;;;6.47;;
55489;SDS011;44029;52.956;4.772;2023-06-19T01:42:23;11.70;;;6.80;;
55489;SDS011;44029;52.956;4.772;2023-06-19T01:44:50;12.57;;;7.25;;
55489;SDS011;44029;52.956;4.772;2023-06-19T01:47:16;13.25;;;7.18;;
55489;SDS011;44029;52.956;4.772;2023-06-19T01:49:45;9.57;;;6.78;;
55489;SDS011;44029;52.956;4.772;2023-06-19T01:52:11;10.85;;;6.93;;
55489;SDS011;44029;52.956;4.772;2023-06-19T01:54:36;10.63;;;7.28;;
55489;SDS011;44029;52.956;4.772;2023-06-19T01:57:01;10.50;;;7.18;;
55489;SDS011;44029;52.956;4.772;2023-06-19T01:59:27;11.93;;;7.32;;
55489;SDS011;44029;52.956;4.772;2023-06-19T02:01:52;8.40;;;6.38;;
55489;SDS011;44029;52.956;4.772;2023-06-19T02:04:18;9.25;;;7.13;;
55489;SDS011;44029;52.956;4.772;2023-06-19T02:06:43;9.57;;;6.72;;
55489;SDS011;44029;52.956;4.772;2023-06-19T02:09:08;10.13;;;6.70;;
55489;SDS011;44029;52.956;4.772;2023-06-19T02:11:34;6.15;;;4.55;;
55489;SDS011;44029;52.956;4.772;2023-06-19T02:13:59;6.35;;;3.60;;
55489;SDS011;44029;52.956;4.772;2023-06-19T02:16:24;6.65;;;3.58;;
55489;SDS011;44029;52.956;4.772;2023-06-19T02:18:50;7.10;;;3.90;;
55489;SDS011;44029;52.956;4.772;2023-06-19T02:21:15;5.80;;;3.42;;
55489;SDS011;44029;52.956;4.772;2023-06-19T02:23:41;7.20;;;3.60;;
55489;SDS011;44029;52.956;4.772;2023-06-19T02:26:06;7.03;;;3.30;;
55489;SDS011;44029;52.956;4.772;2023-06-19T02:28:31;5.50;;;3.53;;
55489;SDS011;44029;52.956;4.772;2023-06-19T02:30:56;6.43;;;3.60;;
55489;SDS011;44029;52.956;4.772;2023-06-19T02:33:22;6.65;;;3.20;;
55489;SDS011;44029;52.956;4.772;2023-06-19T02:35:48;10.75;;;3.80;;
55489;SDS011;44029;52.956;4.772;2023-06-19T02:38:13;11.00;;;3.20;;
55489;SDS011;44029;52.956;4.772;2023-06-19T02:40:39;9.05;;;3.35;;
55489;SDS011;44029;52.956;4.772;2023-06-19T02:43:05;8.70;;;2.60;;
55489;SDS011;44029;52.956;4.772;2023-06-19T02:45:30;5.28;;;2.55;;
55489;SDS011;44029;52.956;4.772;2023-06-19T02:47:56;4.70;;;2.70;;
55489;SDS011;44029;52.956;4.772;2023-06-19T02:50:21;12.35;;;2.78;;
55489;SDS011;44029;52.956;4.772;2023-06-19T02:52:46;4.00;;;2.70;;
55489;SDS011;44029;52.956;4.772;2023-06-19T02:55:12;6.93;;;2.40;;
55489;SDS011;44029;52.956;4.772;2023-06-19T02:57:37;6.55;;;2.92;;
55489;SDS011;44029;52.956;4.772;2023-06-19T03:00:03;15.32;;;3.28;;
55489;SDS011;44029;52.956;4.772;2023-06-19T03:02:31;10.73;;;3.10;;
55489;SDS011;44029;52.956;4.772;2023-06-19T03:04:56;8.30;;;3.08;;
55489;SDS011;44029;52.956;4.772;2023-06-19T03:07:21;6.82;;;2.83;;
55489;SDS011;44029;52.956;4.772;2023-06-19T03:09:47;12.45;;;3.45;;
55489;SDS011;44029;52.956;4.772;2023-06-19T03:12:12;5.85;;;3.15;;
55489;SDS011;44029;52.956;4.772;2023-06-19T03:14:38;7.28;;;3.50;;
55489;SDS011;44029;52.956;4.772;2023-06-19T03:17:04;5.45;;;3.33;;
55489;SDS011;44029;52.956;4.772;2023-06-19T03:19:30;5.85;;;2.90;;
55489;SDS011;44029;52.956;4.772;2023-06-19T03:21:55;6.95;;;2.95;;
55489;SDS011;44029;52.956;4.772;2023-06-19T03:24:21;4.57;;;2.95;;
55489;SDS011;44029;52.956;4.772;2023-06-19T03:26:46;5.40;;;2.80;;
55489;SDS011;44029;52.956;4.772;2023-06-19T03:29:11;5.95;;;2.75;;
55489;SDS011;44029;52.956;4.772;2023-06-19T03:31:37;4.53;;;3.10;;
55489;SDS011;44029;52.956;4.772;2023-06-19T03:34:04;6.18;;;3.65;;
55489;SDS011;44029;52.956;4.772;2023-06-19T03:36:30;6.13;;;3.35;;
55489;SDS011;44029;52.956;4.772;2023-06-19T03:38:55;6.30;;;3.28;;
55489;SDS011;44029;52.956;4.772;2023-06-19T03:41:21;4.72;;;2.85;;
55489;SDS011;44029;52.956;4.772;2023-06-19T03:43:46;6.75;;;3.67;;
55489;SDS011;44029;52.956;4.772;2023-06-19T03:46:11;7.43;;;3.40;;
55489;SDS011;44029;52.956;4.772;2023-06-19T03:48:37;5.07;;;3.60;;
55489;SDS011;44029;52.956;4.772;2023-06-19T03:51:02;7.57;;;3.80;;
55489;SDS011;44029;52.956;4.772;2023-06-19T03:53:28;12.60;;;4.22;;
55489;SDS011;44029;52.956;4.772;2023-06-19T03:55:54;7.85;;;3.83;;
55489;SDS011;44029;52.956;4.772;2023-06-19T03:58:19;7.82;;;4.43;;
55489;SDS011;44029;52.956;4.772;2023-06-19T04:00:45;9.07;;;5.45;;
55489;SDS011;44029;52.956;4.772;2023-06-19T04:03:10;8.70;;;6.20;;
55489;SDS011;44029;52.956;4.772;2023-06-19T04:05:35;9.95;;;7.00;;
55489;SDS011;44029;52.956;4.772;2023-06-19T04:08:01;13.25;;;8.25;;
55489;SDS011;44029;52.956;4.772;2023-06-19T04:10:26;13.55;;;9.55;;
55489;SDS011;44029;52.956;4.772;2023-06-19T04:12:52;14.23;;;10.57;;
55489;SDS011;44029;52.956;4.772;2023-06-19T04:15:20;19.55;;;13.52;;
55489;SDS011;44029;52.956;4.772;2023-06-19T04:17:46;21.55;;;14.07;;
55489;SDS011;44029;52.956;4.772;2023-06-19T04:20:11;23.38;;;14.77;;
55489;SDS011;44029;52.956;4.772;2023-06-19T04:22:40;22.65;;;15.07;;
55489;SDS011;44029;52.956;4.772;2023-06-19T04:25:09;27.80;;;16.40;;
55489;SDS011;44029;52.956;4.772;2023-06-19T04:27:38;26.50;;;17.30;;
55489;SDS011;44029;52.956;4.772;2023-06-19T04:30:04;24.75;;;16.35;;
55489;SDS011;44029;52.956;4.772;2023-06-19T04:32:31;27.67;;;16.10;;
55489;SDS011;44029;52.956;4.772;2023-06-19T04:34:57;24.90;;;16.75;;
55489;SDS011;44029;52.956;4.772;2023-06-19T04:37:22;28.13;;;15.00;;
55489;SDS011;44029;52.956;4.772;2023-06-19T04:39:47;25.05;;;14.45;;
55489;SDS011;44029;52.956;4.772;2023-06-19T04:42:13;32.72;;;14.98;;
55489;SDS011;44029;52.956;4.772;2023-06-19T04:44:45;23.05;;;14.27;;
55489;SDS011;44029;52.956;4.772;2023-06-19T04:47:11;20.60;;;12.07;;
55489;SDS011;44029;52.956;4.772;2023-06-19T04:49:36;19.45;;;11.60;;
55489;SDS011;44029;52.956;4.772;2023-06-19T04:52:01;30.10;;;11.73;;
55489;SDS011;44029;52.956;4.772;2023-06-19T04:54:28;26.50;;;11.95;;
55489;SDS011;44029;52.956;4.772;2023-06-19T04:56:53;28.48;;;11.35;;
55489;SDS011;44029;52.956;4.772;2023-06-19T04:59:19;25.20;;;11.20;;
55489;SDS011;44029;52.956;4.772;2023-06-19T05:01:44;25.42;;;11.90;;
55489;SDS011;44029;52.956;4.772;2023-06-19T05:04:10;29.00;;;10.57;;
55489;SDS011;44029;52.956;4.772;2023-06-19T05:06:38;27.10;;;11.65;;
55489;SDS011;44029;52.956;4.772;2023-06-19T05:09:03;32.20;;;11.23;;
55489;SDS011;44029;52.956;4.772;2023-06-19T05:11:29;22.02;;;9.80;;
55489;SDS011;44029;52.956;4.772;2023-06-19T05:13:54;18.23;;;9.80;;
55489;SDS011;44029;52.956;4.772;2023-06-19T05:16:20;21.00;;;10.48;;
55489;SDS011;44029;52.956;4.772;2023-06-19T05:18:45;18.95;;;9.23;;
55489;SDS011;44029;52.956;4.772;2023-06-19T05:21:10;24.95;;;9.40;;
55489;SDS011;44029;52.956;4.772;2023-06-19T05:23:36;19.27;;;9.30;;
55489;SDS011;44029;52.956;4.772;2023-06-19T05:26:03;13.90;;;8.85;;
55489;SDS011;44029;52.956;4.772;2023-06-19T05:28:29;19.58;;;9.20;;
55489;SDS011;44029;52.956;4.772;2023-06-19T05:30:54;24.15;;;9.00;;
55489;SDS011;44029;52.956;4.772;2023-06-19T05:33:19;15.75;;;8.40;;
55489;SDS011;44029;52.956;4.772;2023-06-19T05:35:45;22.42;;;9.68;;
55489;SDS011;44029;52.956;4.772;2023-06-19T05:40:42;20.90;;;8.95;;
55489;SDS011;44029;52.956;4.772;2023-06-19T05:43:08;24.55;;;11.45;;
55489;SDS011;44029;52.956;4.772;2023-06-19T05:45:33;21.70;;;11.88;;
55489;SDS011;44029;52.956;4.772;2023-06-19T05:47:59;22.00;;;12.48;;
55489;SDS011;44029;52.956;4.772;2023-06-19T05:50:24;27.73;;;13.50;;
55489;SDS011;44029;52.956;4.772;2023-06-19T05:52:49;26.00;;;14.63;;
55489;SDS011;44029;52.956;4.772;2023-06-19T05:55:15;32.47;;;18.08;;
55489;SDS011;44029;52.956;4.772;2023-06-19T05:57:40;43.17;;;22.15;;
55489;SDS011;44029;52.956;4.772;2023-06-19T06:00:07;50.58;;;22.67;;
55489;SDS011;44029;52.956;4.772;2023-06-19T06:02:36;47.53;;;21.83;;
55489;SDS011;44029;52.956;4.772;2023-06-19T06:05:01;50.33;;;22.17;;
55489;SDS011;44029;52.956;4.772;2023-06-19T06:07:26;44.72;;;19.48;;
55489;SDS011;44029;52.956;4.772;2023-06-19T06:09:53;50.50;;;20.50;;
55489;SDS011;44029;52.956;4.772;2023-06-19T06:12:19;49.58;;;20.67;;
55489;SDS011;44029;52.956;4.772;2023-06-19T06:14:44;48.85;;;19.95;;
55489;SDS011;44029;52.956;4.772;2023-06-19T06:17:09;46.97;;;20.17;;
55489;SDS011;44029;52.956;4.772;2023-06-19T06:19:35;43.90;;;19.98;;
55489;SDS011;44029;52.956;4.772;2023-06-19T06:22:02;46.33;;;20.70;;
55489;SDS011;44029;52.956;4.772;2023-06-19T06:24:27;52.47;;;21.38;;
55489;SDS011;44029;52.956;4.772;2023-06-19T06:26:52;49.00;;;19.20;;
55489;SDS011;44029;52.956;4.772;2023-06-19T06:29:18;54.45;;;19.33;;
55489;SDS011;44029;52.956;4.772;2023-06-19T06:31:45;48.83;;;22.05;;
55489;SDS011;44029;52.956;4.772;2023-06-19T06:34:12;51.15;;;20.42;;
55489;SDS011;44029;52.956;4.772;2023-06-19T06:36:37;47.13;;;19.55;;
55489;SDS011;44029;52.956;4.772;2023-06-19T06:39:03;48.70;;;20.33;;
55489;SDS011;44029;52.956;4.772;2023-06-19T06:41:29;46.47;;;18.67;;
55489;SDS011;44029;52.956;4.772;2023-06-19T06:43:54;46.15;;;17.02;;
55489;SDS011;44029;52.956;4.772;2023-06-19T06:46:20;33.22;;;15.98;;
55489;SDS011;44029;52.956;4.772;2023-06-19T06:48:46;32.33;;;13.88;;
55489;SDS011;44029;52.956;4.772;2023-06-19T06:51:11;30.63;;;13.40;;
55489;SDS011;44029;52.956;4.772;2023-06-19T06:53:36;27.27;;;11.68;;
55489;SDS011;44029;52.956;4.772;2023-06-19T06:56:02;22.65;;;12.07;;
55489;SDS011;44029;52.956;4.772;2023-06-19T06:58:28;27.20;;;10.65;;
55489;SDS011;44029;52.956;4.772;2023-06-19T07:00:53;21.00;;;10.82;;
55489;SDS011;44029;52.956;4.772;2023-06-19T07:03:19;22.55;;;10.23;;
55489;SDS011;44029;52.956;4.772;2023-06-19T07:05:44;19.98;;;8.77;;
55489;SDS011;44029;52.956;4.772;2023-06-19T07:08:10;27.33;;;10.00;;
55489;SDS011;44029;52.956;4.772;2023-06-19T07:10:35;19.95;;;9.93;;
55489;SDS011;44029;52.956;4.772;2023-06-19T07:13:01;23.13;;;9.50;;
55489;SDS011;44029;52.956;4.772;2023-06-19T07:15:26;19.27;;;9.40;;
55489;SDS011;44029;52.956;4.772;2023-06-19T07:17:51;20.10;;;8.85;;
55489;SDS011;44029;52.956;4.772;2023-06-19T07:20:17;19.08;;;8.77;;
55489;SDS011;44029;52.956;4.772;2023-06-19T07:22:43;26.33;;;9.35;;
55489;SDS011;44029;52.956;4.772;2023-06-19T07:25:09;22.23;;;8.85;;
55489;SDS011;44029;52.956;4.772;2023-06-19T07:27:36;23.48;;;9.00;;
55489;SDS011;44029;52.956;4.772;2023-06-19T07:30:01;22.58;;;9.02;;
55489;SDS011;44029;52.956;4.772;2023-06-19T07:32:27;19.98;;;8.30;;
55489;SDS011;44029;52.956;4.772;2023-06-19T07:34:53;24.52;;;7.70;;
55489;SDS011;44029;52.956;4.772;2023-06-19T07:37:19;18.63;;;8.18;;
55489;SDS011;44029;52.956;4.772;2023-06-19T07:39:44;16.23;;;9.60;;
55489;SDS011;44029;52.956;4.772;2023-06-19T07:42:10;20.55;;;9.15;;
55489;SDS011;44029;52.956;4.772;2023-06-19T07:44:36;18.25;;;9.60;;
55489;SDS011;44029;52.956;4.772;2023-06-19T07:47:01;23.67;;;10.18;;
55489;SDS011;44029;52.956;4.772;2023-06-19T07:49:27;17.77;;;9.52;;
55489;SDS011;44029;52.956;4.772;2023-06-19T07:51:52;20.85;;;10.38;;
55489;SDS011;44029;52.956;4.772;2023-06-19T07:54:17;19.83;;;10.13;;
55489;SDS011;44029;52.956;4.772;2023-06-19T07:56:43;26.65;;;10.25;;
55489;SDS011;44029;52.956;4.772;2023-06-19T07:59:09;21.45;;;10.55;;
55489;SDS011;44029;52.956;4.772;2023-06-19T08:01:34;22.23;;;9.32;;
55489;SDS011;44029;52.956;4.772;2023-06-19T08:03:59;24.27;;;12.25;;
55489;SDS011;44029;52.956;4.772;2023-06-19T08:06:25;23.10;;;11.30;;
55489;SDS011;44029;52.956;4.772;2023-06-19T08:08:50;23.40;;;11.63;;
55489;SDS011;44029;52.956;4.772;2023-06-19T08:11:16;22.05;;;11.23;;
55489;SDS011;44029;52.956;4.772;2023-06-19T08:13:42;25.58;;;12.38;;
55489;SDS011;44029;52.956;4.772;2023-06-19T08:16:07;24.92;;;12.57;;
55489;SDS011;44029;52.956;4.772;2023-06-19T08:18:32;24.77;;;12.77;;
55489;SDS011;44029;52.956;4.772;2023-06-19T08:20:58;26.15;;;12.57;;
55489;SDS011;44029;52.956;4.772;2023-06-19T08:23:23;29.15;;;12.52;;
55489;SDS011;44029;52.956;4.772;2023-06-19T08:25:49;27.25;;;12.48;;
55489;SDS011;44029;52.956;4.772;2023-06-19T08:28:16;30.38;;;12.30;;
55489;SDS011;44029;52.956;4.772;2023-06-19T08:30:41;21.73;;;11.43;;
55489;SDS011;44029;52.956;4.772;2023-06-19T08:33:06;26.58;;;11.63;;
55489;SDS011;44029;52.956;4.772;2023-06-19T08:35:31;19.05;;;10.70;;
55489;SDS011;44029;52.956;4.772;2023-06-19T08:37:57;25.88;;;13.60;;
55489;SDS011;44029;52.956;4.772;2023-06-19T08:40:22;23.77;;;12.88;;
55489;SDS011;44029;52.956;4.772;2023-06-19T08:42:47;31.33;;;13.48;;
55489;SDS011;44029;52.956;4.772;2023-06-19T08:45:13;26.73;;;14.25;;
55489;SDS011;44029;52.956;4.772;2023-06-19T08:47:38;27.80;;;12.02;;
55489;SDS011;44029;52.956;4.772;2023-06-19T08:50:04;22.27;;;11.68;;
55489;SDS011;44029;52.956;4.772;2023-06-19T08:52:29;20.05;;;11.55;;
55489;SDS011;44029;52.956;4.772;2023-06-19T08:54:55;22.65;;;12.43;;
55489;SDS011;44029;52.956;4.772;2023-06-19T08:57:20;26.50;;;11.70;;
55489;SDS011;44029;52.956;4.772;2023-06-19T08:59:49;24.00;;;12.07;;
55489;SDS011;44029;52.956;4.772;2023-06-19T09:02:15;22.52;;;12.63;;
55489;SDS011;44029;52.956;4.772;2023-06-19T09:04:41;26.27;;;13.55;;
55489;SDS011;44029;52.956;4.772;2023-06-19T09:07:07;34.10;;;14.65;;
55489;SDS011;44029;52.956;4.772;2023-06-19T09:09:33;27.70;;;13.70;;
55489;SDS011;44029;52.956;4.772;2023-06-19T09:14:37;21.33;;;11.82;;
55489;SDS011;44029;52.956;4.772;2023-06-19T09:17:05;25.90;;;11.98;;
55489;SDS011;44029;52.956;4.772;2023-06-19T09:19:32;24.92;;;11.63;;
55489;SDS011;44029;52.956;4.772;2023-06-19T09:22:04;25.05;;;11.95;;
55489;SDS011;44029;52.956;4.772;2023-06-19T09:24:36;25.43;;;11.83;;
55489;SDS011;44029;52.956;4.772;2023-06-19T09:27:09;20.15;;;10.50;;
55489;SDS011;44029;52.956;4.772;2023-06-19T09:29:42;20.33;;;11.52;;
55489;SDS011;44029;52.956;4.772;2023-06-19T09:32:19;20.77;;;9.50;;
55489;SDS011;44029;52.956;4.772;2023-06-19T09:34:46;19.38;;;11.80;;
55489;SDS011;44029;52.956;4.772;2023-06-19T09:37:12;21.80;;;11.52;;
55489;SDS011;44029;52.956;4.772;2023-06-19T09:39:38;19.38;;;11.90;;
55489;SDS011;44029;52.956;4.772;2023-06-19T09:42:08;16.63;;;10.45;;
55489;SDS011;44029;52.956;4.772;2023-06-19T09:44:41;18.20;;;10.60;;
55489;SDS011;44029;52.956;4.772;2023-06-19T09:47:27;26.33;;;11.45;;
55489;SDS011;44029;52.956;4.772;2023-06-19T09:49:56;23.80;;;11.32;;
55489;SDS011;44029;52.956;4.772;2023-06-19T09:52:22;20.83;;;10.93;;
55489;SDS011;44029;52.956;4.772;2023-06-19T09:54:52;19.63;;;10.85;;
55489;SDS011;44029;52.956;4.772;2023-06-19T09:57:18;15.95;;;9.70;;
55489;SDS011;44029;52.956;4.772;2023-06-19T09:59:47;15.25;;;9.40;;
55489;SDS011;44029;52.956;4.772;2023-06-19T10:02:18;15.10;;;8.60;;
55489;SDS011;44029;52.956;4.772;2023-06-19T10:04:46;16.40;;;8.77;;
55489;SDS011;44029;52.956;4.772;2023-06-19T10:09:57;13.55;;;8.23;;
55489;SDS011;44029;52.956;4.772;2023-06-19T10:12:42;16.02;;;8.10;;
55489;SDS011;44029;52.956;4.772;2023-06-19T10:15:13;12.25;;;8.20;;
55489;SDS011;44029;52.956;4.772;2023-06-19T10:17:53;16.88;;;9.38;;
55489;SDS011;44029;52.956;4.772;2023-06-19T10:20:23;15.68;;;9.10;;
55489;SDS011;44029;52.956;4.772;2023-06-19T10:22:51;14.75;;;8.35;;
55489;SDS011;44029;52.956;4.772;2023-06-19T10:25:37;17.25;;;8.05;;
55489;SDS011;44029;52.956;4.772;2023-06-19T10:28:04;17.33;;;9.93;;
55489;SDS011;44029;52.956;4.772;2023-06-19T10:30:44;12.73;;;7.95;;
55489;SDS011;44029;52.956;4.772;2023-06-19T10:33:10;15.02;;;8.50;;
55489;SDS011;44029;52.956;4.772;2023-06-19T10:35:39;14.02;;;9.13;;
55489;SDS011;44029;52.956;4.772;2023-06-19T10:38:06;20.60;;;9.77;;
55489;SDS011;44029;52.956;4.772;2023-06-19T10:40:32;15.15;;;10.05;;
55489;SDS011;44029;52.956;4.772;2023-06-19T10:42:57;20.55;;;10.98;;
55489;SDS011;44029;52.956;4.772;2023-06-19T10:45:23;18.33;;;11.00;;
55489;SDS011;44029;52.956;4.772;2023-06-19T10:47:53;18.52;;;11.43;;
55489;SDS011;44029;52.956;4.772;2023-06-19T10:50:20;21.40;;;10.65;;
55489;SDS011;44029;52.956;4.772;2023-06-19T10:52:45;21.58;;;11.30;;
55489;SDS011;44029;52.956;4.772;2023-06-19T10:55:13;18.70;;;9.73;;
55489;SDS011;44029;52.956;4.772;2023-06-19T10:57:39;17.20;;;9.95;;
55489;SDS011;44029;52.956;4.772;2023-06-19T11:00:05;20.60;;;9.38;;
55489;SDS011;44029;52.956;4.772;2023-06-19T11:05:04;17.73;;;9.07;;
55489;SDS011;44029;52.956;4.772;2023-06-19T11:07:30;21.27;;;10.15;;
55489;SDS011;44029;52.956;4.772;2023-06-19T11:09:57;21.00;;;9.60;;
55489;SDS011;44029;52.956;4.772;2023-06-19T11:12:23;18.70;;;9.55;;
55489;SDS011;44029;52.956;4.772;2023-06-19T11:14:49;24.52;;;9.85;;
55489;SDS011;44029;52.956;4.772;2023-06-19T11:17:15;18.50;;;9.65;;
55489;SDS011;44029;52.956;4.772;2023-06-19T11:19:40;18.08;;;10.00;;
55489;SDS011;44029;52.956;4.772;2023-06-19T11:22:08;13.38;;;9.13;;
55489;SDS011;44029;52.956;4.772;2023-06-19T11:24:35;19.30;;;9.68;;
55489;SDS011;44029;52.956;4.772;2023-06-19T11:27:00;18.55;;;9.60;;
55489;SDS011;44029;52.956;4.772;2023-06-19T11:29:26;25.83;;;9.80;;
55489;SDS011;44029;52.956;4.772;2023-06-19T11:32:04;20.95;;;12.23;;
55489;SDS011;44029;52.956;4.772;2023-06-19T11:34:31;17.95;;;9.10;;
55489;SDS011;44029;52.956;4.772;2023-06-19T11:36:59;19.25;;;9.80;;
55489;SDS011;44029;52.956;4.772;2023-06-19T11:39:24;16.10;;;9.18;;
55489;SDS011;44029;52.956;4.772;2023-06-19T11:41:49;15.95;;;8.82;;
55489;SDS011;44029;52.956;4.772;2023-06-19T11:44:16;17.27;;;8.55;;
55489;SDS011;44029;52.956;4.772;2023-06-19T11:46:41;21.15;;;9.20;;
55489;SDS011;44029;52.956;4.772;2023-06-19T11:49:08;15.00;;;9.25;;
55489;SDS011;44029;52.956;4.772;2023-06-19T11:51:41;17.45;;;8.68;;
55489;SDS011;44029;52.956;4.772;2023-06-19T11:54:08;16.20;;;9.10;;
55489;SDS011;44029;52.956;4.772;2023-06-19T11:56:35;21.80;;;8.57;;
55489;SDS011;44029;52.956;4.772;2023-06-19T11:59:01;15.45;;;8.32;;
55489;SDS011;44029;52.956;4.772;2023-06-19T12:01:28;15.07;;;8.43;;
55489;SDS011;44029;52.956;4.772;2023-06-19T12:03:53;16.77;;;8.57;;
55489;SDS011;44029;52.956;4.772;2023-06-19T12:06:19;15.48;;;8.25;;
55489;SDS011;44029;52.956;4.772;2023-06-19T12:08:45;18.08;;;8.20;;
55489;SDS011;44029;52.956;4.772;2023-06-19T12:11:10;14.85;;;9.00;;
55489;SDS011;44029;52.956;4.772;2023-06-19T12:13:38;17.83;;;9.80;;
55489;SDS011;44029;52.956;4.772;2023-06-19T12:16:03;21.40;;;9.75;;
55489;SDS011;44029;52.956;4.772;2023-06-19T12:18:29;22.73;;;8.68;;
55489;SDS011;44029;52.956;4.772;2023-06-19T12:20:54;18.98;;;9.15;;
55489;SDS011;44029;52.956;4.772;2023-06-19T12:23:19;18.15;;;8.65;;
55489;SDS011;44029;52.956;4.772;2023-06-19T12:25:45;16.77;;;8.45;;
55489;SDS011;44029;52.956;4.772;2023-06-19T12:28:10;20.45;;;8.38;;
55489;SDS011;44029;52.956;4.772;2023-06-19T12:30:36;13.95;;;7.70;;
55489;SDS011;44029;52.956;4.772;2023-06-19T12:33:01;13.60;;;7.57;;
55489;SDS011;44029;52.956;4.772;2023-06-19T12:35:28;18.88;;;8.05;;
55489;SDS011;44029;52.956;4.772;2023-06-19T12:37:54;16.35;;;8.35;;
55489;SDS011;44029;52.956;4.772;2023-06-19T12:40:20;13.77;;;8.32;;
55489;SDS011;44029;52.956;4.772;2023-06-19T12:42:45;16.38;;;8.57;;
55489;SDS011;44029;52.956;4.772;2023-06-19T12:45:11;15.82;;;8.35;;
55489;SDS011;44029;52.956;4.772;2023-06-19T12:47:37;15.20;;;7.97;;
55489;SDS011;44029;52.956;4.772;2023-06-19T12:50:02;15.13;;;8.73;;
55489;SDS011;44029;52.956;4.772;2023-06-19T12:52:28;20.27;;;8.38;;
55489;SDS011;44029;52.956;4.772;2023-06-19T12:54:53;18.30;;;8.57;;
55489;SDS011;44029;52.956;4.772;2023-06-19T12:57:19;16.15;;;8.02;;
55489;SDS011;44029;52.956;4.772;2023-06-19T12:59:44;18.77;;;8.68;;
55489;SDS011;44029;52.956;4.772;2023-06-19T13:02:09;16.95;;;8.57;;
55489;SDS011;44029;52.956;4.772;2023-06-19T13:04:35;15.43;;;8.13;;
55489;SDS011;44029;52.956;4.772;2023-06-19T13:07:00;12.82;;;7.70;;
55489;SDS011;44029;52.956;4.772;2023-06-19T13:09:26;15.52;;;8.32;;
55489;SDS011;44029;52.956;4.772;2023-06-19T13:11:51;17.20;;;7.95;;
55489;SDS011;44029;52.956;4.772;2023-06-19T13:14:16;16.20;;;8.48;;
55489;SDS011;44029;52.956;4.772;2023-06-19T13:16:42;17.52;;;9.18;;
55489;SDS011;44029;52.956;4.772;2023-06-19T13:19:07;20.40;;;8.43;;
55489;SDS011;44029;52.956;4.772;2023-06-19T13:21:32;18.63;;;8.90;;
55489;SDS011;44029;52.956;4.772;2023-06-19T13:23:58;16.20;;;9.02;;
55489;SDS011;44029;52.956;4.772;2023-06-19T13:26:23;23.23;;;9.98;;
55489;SDS011;44029;52.956;4.772;2023-06-19T13:28:49;22.80;;;8.32;;
55489;SDS011;44029;52.956;4.772;2023-06-19T13:31:14;19.17;;;9.50;;
55489;SDS011;44029;52.956;4.772;2023-06-19T13:33:39;16.27;;;8.43;;
55489;SDS011;44029;52.956;4.772;2023-06-19T13:36:05;16.48;;;8.52;;
55489;SDS011;44029;52.956;4.772;2023-06-19T13:38:30;16.70;;;9.13;;
55489;SDS011;44029;52.956;4.772;2023-06-19T13:40:56;17.30;;;8.18;;
55489;SDS011;44029;52.956;4.772;2023-06-19T13:43:21;14.98;;;8.23;;
55489;SDS011;44029;52.956;4.772;2023-06-19T13:45:48;19.52;;;9.43;;
55489;SDS011;44029;52.956;4.772;2023-06-19T13:48:14;19.88;;;10.32;;
55489;SDS011;44029;52.956;4.772;2023-06-19T13:50:39;19.17;;;9.98;;
55489;SDS011;44029;52.956;4.772;2023-06-19T13:53:04;20.25;;;9.57;;
55489;SDS011;44029;52.956;4.772;2023-06-19T13:55:30;19.35;;;9.90;;
55489;SDS011;44029;52.956;4.772;2023-06-19T13:57:55;20.00;;;10.20;;
55489;SDS011;44029;52.956;4.772;2023-06-19T14:00:20;27.88;;;11.65;;
55489;SDS011;44029;52.956;4.772;2023-06-19T14:02:46;17.50;;;9.27;;
55489;SDS011;44029;52.956;4.772;2023-06-19T14:05:11;19.25;;;9.75;;
55489;SDS011;44029;52.956;4.772;2023-06-19T14:07:40;16.30;;;9.00;;
55489;SDS011;44029;52.956;4.772;2023-06-19T14:10:05;24.42;;;9.95;;
55489;SDS011;44029;52.956;4.772;2023-06-19T14:12:31;20.42;;;9.20;;
55489;SDS011;44029;52.956;4.772;2023-06-19T14:14:57;15.80;;;8.82;;
55489;SDS011;44029;52.956;4.772;2023-06-19T14:17:22;18.77;;;9.07;;
55489;SDS011;44029;52.956;4.772;2023-06-19T14:19:48;22.35;;;9.77;;
55489;SDS011;44029;52.956;4.772;2023-06-19T14:22:14;17.38;;;9.57;;
55489;SDS011;44029;52.956;4.772;2023-06-19T14:24:39;21.10;;;9.15;;
55489;SDS011;44029;52.956;4.772;2023-06-19T14:27:05;18.77;;;9.75;;
55489;SDS011;44029;52.956;4.772;2023-06-19T14:29:30;22.67;;;8.77;;
55489;SDS011;44029;52.956;4.772;2023-06-19T14:31:55;18.92;;;9.25;;
55489;SDS011;44029;52.956;4.772;2023-06-19T14:34:21;20.83;;;10.63;;
55489;SDS011;44029;52.956;4.772;2023-06-19T14:36:46;19.52;;;10.02;;
55489;SDS011;44029;52.956;4.772;2023-06-19T14:39:12;18.60;;;9.43;;
55489;SDS011;44029;52.956;4.772;2023-06-19T14:41:37;17.95;;;9.32;;
55489;SDS011;44029;52.956;4.772;2023-06-19T14:44:04;90.70;;;52.90;;